Birmingham, AL

11:02 AM CST on March 06, 2015 (GMT -0600)
Shelby County | Change Station
CLOSE
Current Station
Airport
Location: Alabaster,
Elevation: 584 ft
Nearby Weather Stations

Elev 584 ft 33.18 °N, 86.78 °W | Updated 9 minutes ago

Partly Cloudy
Partly Cloudy
35 °F
Feels Like 31 °F
N
5
Wind Variable Wind from Variable
Gusts mph

Today
High -- | Low -- °F
--% Chance of Precip.
Yesterday
High -- | Low -- °F
Precip. -- in
6:09 AM 5:47 PM
Full, 99% visible
Pressure 30.52 in
Visibility -9999.0 miles
Clouds
Windchill 31 °F
Dew Point 24 °F
Humidity 64%
Rainfall 0.00 in
Snow Depth Not available.
UV Not available.
Pollen 7.10 out of 12
Air Quality Not available.
Flu Activity Not available.
METAR KEET 061653Z AUTO VRB04KT 02/M04 A3051 RMK AO2 SLP335 T00171044 PWINO $

More Conditions Fewer Conditions

Pressure 30.52 in
Visibility -9999.0 miles
Clouds
Windchill 31 °F
Dew Point 24 °F
Humidity 64%
Rainfall 0.00 in
Snow Depth Not available.
UV Not available.
Pollen 7.10 out of 12
Air Quality Not available.
Flu Activity Not available.
METAR KEET 061653Z AUTO VRB04KT 02/M04 A3051 RMK AO2 SLP335 T00171044 PWINO $

More Conditions Fewer Conditions

10-Day Weather Forecast

Almanac

Astronomy

Mar. 06, 2015 Rise Set
Actual Time
Civil Twilight
Nautical Twilight
Astronomical Twilight
Moon
Length of Visible Light
Length of Day
Tomorrow will be .
, % of the Moon is Illuminated

Today's Extremes

State Highs State Lows

Community

WunderPhotos

Upload Photos

1,803,337 photos uploaded!

WunderBlogs® & News

Nearby

Air Quality

  Air Quality AQ Index Pollutant
Not available.

Snow Depth

Station Depth Elevation

Earthquake Activity

City Distance Mag. Time & Date
Minimum magnitude displayed is 2.5.

Coastal Water Temperatures

Place Temperature

Nearby Weather Stations